Time;durP1;ratioP1;P1;durP2;ratioP2;P2;SDS_P1;SDS_P2;PMS_P1;PMS_P2;Temp;Humidity;BMP_temperature;BMP_pressure;BME280_temperature;BME280_humidity;BME280_pressure;Samples;Min_cycle;Max_cycle;Signal;HPM_P1;HPM_P2
2023/07/05 00:00:42;;;;;;;9.63;6.30;;;;;;;18.92;100.00;93079.84;5073726;28;20561;-77
2023/07/05 00:03:09;;;;;;;11.23;6.38;;;;;;;18.88;100.00;93074.41;5073216;28;20094;-77
2023/07/05 00:05:36;;;;;;;8.38;6.10;;;;;;;18.90;100.00;93074.94;5077205;28;20048;-77
2023/07/05 00:08:03;;;;;;;10.77;6.22;;;;;;;18.91;100.00;93076.50;5079174;28;20429;-77
2023/07/05 00:10:32;;;;;;;12.77;6.25;;;;;;;18.88;100.00;93078.84;5070666;28;21112;-77
2023/07/05 00:13:00;;;;;;;9.50;6.35;;;;;;;18.88;100.00;93089.25;5068424;28;20835;-77
2023/07/05 00:15:27;;;;;;;8.95;6.28;;;;;;;18.88;100.00;93089.25;5068214;28;20040;-77
2023/07/05 00:17:54;;;;;;;12.55;7.25;;;;;;;18.88;100.00;93086.66;5074083;28;20479;-77
2023/07/05 00:20:20;;;;;;;9.82;7.05;;;;;;;18.88;100.00;93081.44;5084316;28;20050;-77
2023/07/05 00:22:47;;;;;;;10.98;6.68;;;;;;;18.83;100.00;93079.63;5077196;28;20043;-78
2023/07/05 00:25:16;;;;;;;11.80;6.03;;;;;;;18.87;100.00;93080.66;5080377;28;20603;-77
2023/07/05 00:27:45;;;;;;;10.05;6.93;;;;;;;18.88;100.00;93082.22;5081901;28;20094;-78
2023/07/05 00:30:12;;;;;;;9.55;6.43;;;;;;;18.90;100.00;93089.75;5081273;28;20039;-77
2023/07/05 00:32:39;;;;;;;10.82;7.10;;;;;;;18.83;100.00;93080.41;5077581;28;20047;-77
2023/07/05 00:35:06;;;;;;;9.55;6.15;;;;;;;18.78;100.00;93080.41;5080953;28;20048;-77
2023/07/05 00:37:33;;;;;;;12.95;7.53;;;;;;;18.69;100.00;93072.38;5080264;28;20043;-77
2023/07/05 00:40:00;;;;;;;12.00;7.20;;;;;;;18.55;100.00;93073.94;5079334;28;20036;-77
2023/07/05 00:42:27;;;;;;;11.93;7.88;;;;;;;18.56;100.00;93073.69;5076444;28;20052;-77
2023/07/05 00:45:35;;;;;;;11.63;6.80;;;;;;;18.64;100.00;93076.78;5081323;28;20051;-77
2023/07/05 00:48:04;;;;;;;10.18;6.97;;;;;;;18.54;100.00;93082.78;5080986;28;20046;-77
2023/07/05 00:50:39;;;;;;;11.00;7.22;;;;;;;18.58;100.00;93072.66;5074622;28;20086;-76
2023/07/05 00:53:07;;;;;;;10.60;6.38;;;;;;;18.62;100.00;93071.88;5072048;28;20110;-76
2023/07/05 00:55:34;;;;;;;8.80;6.32;;;;;;;18.62;100.00;93071.88;5067717;28;20105;-77
2023/07/05 00:58:03;;;;;;;9.43;6.32;;;;;;;18.65;100.00;93071.34;5069850;28;20098;-77
2023/07/05 01:00:31;;;;;;;10.70;7.05;;;;;;;18.63;100.00;93060.41;5066982;28;20053;-77
2023/07/05 01:03:04;;;;;;;9.90;6.43;;;;;;;18.69;100.00;93067.16;5069454;28;20056;-78
2023/07/05 01:05:32;;;;;;;10.02;6.40;;;;;;;18.74;100.00;93076.00;5072626;28;20048;-79
2023/07/05 01:07:59;;;;;;;9.48;6.97;;;;;;;18.74;100.00;93070.81;5080214;28;20048;-77
2023/07/05 01:10:27;;;;;;;11.70;7.25;;;;;;;18.76;100.00;93077.31;5079315;28;20044;-77
2023/07/05 01:13:03;;;;;;;10.13;6.90;;;;;;;18.77;100.00;93075.47;5087355;28;20040;-77
2023/07/05 01:15:36;;;;;;;8.75;6.22;;;;;;;18.59;100.00;93040.38;5085915;28;20539;-78
2023/07/05 01:18:16;;;;;;;9.52;6.60;;;;;;;18.81;100.00;93061.69;5082882;28;20036;-78
2023/07/05 01:20:51;;;;;;;11.30;6.65;;;;;;;18.83;100.00;93064.00;5084429;28;20421;-78
2023/07/05 01:23:41;;;;;;;11.05;6.47;;;;;;;18.82;100.00;93071.06;5085415;28;20048;-78
2023/07/05 01:26:39;;;;;;;11.32;6.90;;;;;;;18.84;100.00;93068.16;5086060;28;20101;-77
2023/07/05 01:29:24;;;;;;;9.43;6.40;;;;;;;18.86;100.00;93062.69;5084859;28;20048;-78
2023/07/05 01:31:59;;;;;;;13.05;6.78;;;;;;;18.65;100.00;93023.75;5085345;28;20040;-77
2023/07/05 01:34:38;;;;;;;10.30;6.53;;;;;;;18.88;100.00;93052.81;5083481;28;20555;-78
2023/07/05 01:37:07;;;;;;;12.68;6.70;;;;;;;18.87;100.00;93051.25;5084569;28;20043;-78
2023/07/05 01:39:34;;;;;;;12.00;7.03;;;;;;;18.83;100.00;93053.59;5083710;28;20052;-78
2023/07/05 01:42:03;;;;;;;11.50;6.28;;;;;;;18.79;100.00;93045.53;5083022;28;20066;-77
2023/07/05 01:44:30;;;;;;;16.33;7.97;;;;;;;18.78;100.00;93046.59;5081998;28;20101;-77
2023/07/05 01:47:04;;;;;;;12.13;7.43;;;;;;;18.79;100.00;93047.38;5081941;28;20048;-77
2023/07/05 01:49:41;;;;;;;13.00;7.57;;;;;;;18.77;100.00;93042.44;5083064;28;20059;-77
2023/07/05 01:52:15;;;;;;;11.05;6.65;;;;;;;18.70;100.00;93023.69;5083066;28;20105;-77
2023/07/05 01:54:53;;;;;;;11.68;7.40;;;;;;;18.68;100.00;93015.41;5080793;28;20047;-77
2023/07/05 01:57:24;;;;;;;16.35;8.98;;;;;;;18.77;100.00;93033.84;5082956;28;20072;-78
2023/07/05 01:59:55;;;;;;;13.30;7.57;;;;;;;18.74;100.00;93027.34;5083332;28;20097;-77
2023/07/05 02:02:28;;;;;;;13.57;8.27;;;;;;;18.74;100.00;93029.19;5083788;28;20067;-78
2023/07/05 02:04:57;;;;;;;11.35;6.97;;;;;;;18.70;100.00;93021.91;5085626;28;20074;-78
2023/07/05 02:07:27;;;;;;;13.43;7.85;;;;;;;18.71;100.00;93025.28;5082204;28;20437;-78
2023/07/05 02:09:55;;;;;;;12.68;7.25;;;;;;;18.72;100.00;93021.63;5084616;28;20044;-77
2023/07/05 02:12:22;;;;;;;11.52;7.13;;;;;;;18.60;100.00;93014.13;5084869;28;20059;-78
2023/07/05 02:14:49;;;;;;;14.75;7.63;;;;;;;18.61;100.00;93007.88;5083848;28;20086;-78
2023/07/05 02:17:16;;;;;;;11.05;6.78;;;;;;;18.64;100.00;93011.75;5084831;28;20097;-77
2023/07/05 02:19:44;;;;;;;15.65;8.20;;;;;;;18.50;100.00;93004.53;5085124;28;20055;-77
2023/07/05 02:22:11;;;;;;;14.68;7.95;;;;;;;18.59;100.00;93025.56;5083975;28;20085;-77
2023/07/05 02:24:38;;;;;;;13.70;8.43;;;;;;;18.48;100.00;93008.44;5077321;28;20048;-77
2023/07/05 02:27:06;;;;;;;14.02;8.05;;;;;;;18.48;100.00;93011.03;5081979;28;20040;-77
2023/07/05 02:29:33;;;;;;;14.15;8.30;;;;;;;18.47;100.00;93007.63;5079053;28;20044;-77
2023/07/05 02:32:00;;;;;;;10.77;7.15;;;;;;;18.46;100.00;93007.91;5079918;28;20098;-77
2023/07/05 02:34:28;;;;;;;10.32;7.05;;;;;;;18.41;100.00;92998.28;5081263;28;20383;-77
2023/07/05 02:36:56;;;;;;;12.25;7.13;;;;;;;18.44;100.00;93010.78;5079539;28;20040;-76
2023/07/05 02:39:22;;;;;;;12.18;7.70;;;;;;;18.38;100.00;93009.22;5081935;28;20048;-82
2023/07/05 02:41:49;;;;;;;28.13;8.77;;;;;;;18.38;100.00;93001.44;5078054;28;20623;-76
2023/07/05 02:44:16;;;;;;;15.02;8.10;;;;;;;18.35;100.00;92994.16;5080559;28;20093;-77
2023/07/05 02:46:42;;;;;;;21.33;7.88;;;;;;;18.34;100.00;92977.00;5078068;28;20641;-77
2023/07/05 02:49:09;;;;;;;12.15;7.15;;;;;;;18.35;100.00;92981.16;5079711;28;20040;-77
2023/07/05 02:51:36;;;;;;;18.05;7.82;;;;;;;18.34;100.00;92984.78;5083327;28;20048;-77
2023/07/05 02:54:04;;;;;;;13.07;7.43;;;;;;;18.22;100.00;92988.44;5079535;28;20105;-76
2023/07/05 02:56:31;;;;;;;13.75;7.78;;;;;;;17.92;100.00;92986.63;5079999;28;20044;-76
2023/07/05 02:58:57;;;;;;;15.63;8.18;;;;;;;17.94;100.00;92982.75;5079309;28;20153;-76
2023/07/05 03:01:24;;;;;;;16.30;8.07;;;;;;;17.97;100.00;92973.63;5079876;28;20044;-75
2023/07/05 03:03:51;;;;;;;14.60;8.05;;;;;;;17.99;100.00;92971.56;5078573;28;20802;-76
2023/07/05 03:06:17;;;;;;;11.25;7.15;;;;;;;18.01;100.00;92977.28;5081759;28;20409;-76
2023/07/05 03:08:45;;;;;;;11.55;7.90;;;;;;;18.05;100.00;92972.34;5078206;28;20054;-76
2023/07/05 03:11:13;;;;;;;14.85;9.07;;;;;;;18.07;100.00;92972.88;5081065;28;20165;-76
2023/07/05 03:13:39;;;;;;;11.57;7.50;;;;;;;18.08;100.00;92970.00;5077694;28;20076;-76
2023/07/05 03:16:07;;;;;;;12.55;7.72;;;;;;;18.09;100.00;92968.97;5077182;28;20109;-76
2023/07/05 03:18:34;;;;;;;11.23;7.13;;;;;;;18.07;100.00;92972.88;5078739;28;20048;-76
2023/07/05 03:21:01;;;;;;;9.88;6.75;;;;;;;17.92;100.00;92947.66;5078814;28;20127;-76
2023/07/05 03:23:28;;;;;;;11.45;6.70;;;;;;;18.15;100.00;92985.34;5076779;28;20387;-76
2023/07/05 03:25:56;;;;;;;14.38;7.80;;;;;;;18.17;100.00;92988.47;5080194;28;20044;-76
2023/07/05 03:28:26;;;;;;;12.15;8.48;;;;;;;18.00;100.00;92978.28;5081295;28;20089;-75
2023/07/05 03:30:57;;;;;;;12.18;8.43;;;;;;;18.10;100.00;92988.72;5075974;28;20094;-75
2023/07/05 03:33:25;;;;;;;16.15;8.75;;;;;;;17.76;100.00;93005.59;5079848;28;20044;-76
2023/07/05 03:35:56;;;;;;;15.80;9.05;;;;;;;17.71;100.00;93008.19;5079491;28;20048;-76
2023/07/05 03:38:24;;;;;;;20.67;9.77;;;;;;;17.75;100.00;92988.47;5079386;28;20101;-76
2023/07/05 03:40:57;;;;;;;18.77;10.10;;;;;;;17.85;100.00;92981.69;5072832;28;20047;-76
2023/07/05 03:43:26;;;;;;;23.63;12.85;;;;;;;17.94;100.00;92976.75;5076865;28;20097;-76
2023/07/05 03:45:52;;;;;;;18.30;9.98;;;;;;;18.04;100.00;92989.75;5076704;28;20071;-75
2023/07/05 03:48:20;;;;;;;16.02;9.70;;;;;;;18.18;100.00;93004.84;5082895;28;20048;-76
2023/07/05 03:50:47;;;;;;;16.50;10.32;;;;;;;18.10;100.00;93001.72;5079230;28;20440;-75
2023/07/05 03:53:14;;;;;;;20.58;9.98;;;;;;;18.18;100.00;93004.84;5077531;28;20045;-76
2023/07/05 03:55:41;;;;;;;21.10;11.45;;;;;;;18.19;100.00;93009.75;5077125;28;20097;-76
2023/07/05 03:58:07;;;;;;;19.10;11.25;;;;;;;18.06;100.00;92999.88;5078417;28;20078;-76
2023/07/05 04:00:35;;;;;;;23.40;11.07;;;;;;;18.02;100.00;93015.97;5075361;28;20048;-76
2023/07/05 04:03:02;;;;;;;24.60;12.65;;;;;;;17.99;100.00;93019.13;5075613;28;20127;-76
2023/07/05 04:05:29;;;;;;;21.50;11.73;;;;;;;17.90;100.00;93010.28;5075568;28;20040;-76
2023/07/05 04:07:56;;;;;;;22.08;12.50;;;;;;;17.88;100.00;93007.16;5073789;28;20614;-76
2023/07/05 04:10:23;;;;;;;18.83;10.93;;;;;;;18.01;100.00;93016.25;5076107;28;20051;-76
2023/07/05 04:12:50;;;;;;;22.15;12.00;;;;;;;17.97;100.00;93005.59;5079685;28;20044;-76
2023/07/05 04:15:17;;;;;;;20.35;12.10;;;;;;;17.99;100.00;93013.91;5083923;28;20102;-76
2023/07/05 04:17:45;;;;;;;30.27;12.65;;;;;;;17.98;100.00;93027.16;5077905;28;20455;-76
2023/07/05 04:20:12;;;;;;;25.17;12.60;;;;;;;18.03;100.00;93030.56;5080211;28;20044;-75
2023/07/05 04:22:41;;;;;;;27.65;12.30;;;;;;;18.05;100.00;93032.13;5082870;28;20048;-76
2023/07/05 04:25:09;;;;;;;29.23;12.35;;;;;;;17.84;100.00;92996.53;5080767;28;20052;-76
2023/07/05 04:27:36;;;;;;;33.17;12.55;;;;;;;18.11;100.00;93031.09;5080901;28;20044;-76
2023/07/05 04:30:04;;;;;;;28.50;12.68;;;;;;;18.14;100.00;93018.34;5080977;28;20101;-76
2023/07/05 04:32:31;;;;;;;27.77;12.35;;;;;;;18.22;100.00;93011.84;5080582;28;20052;-76
2023/07/05 04:34:59;;;;;;;32.63;13.52;;;;;;;18.43;100.00;93024.81;5082891;28;20089;-76
2023/07/05 04:37:26;;;;;;;28.65;12.68;;;;;;;18.38;100.00;93014.44;5082229;28;20494;-76
2023/07/05 04:39:52;;;;;;;27.27;11.32;;;;;;;18.58;100.00;93036.22;5081439;28;20097;-76
2023/07/05 04:42:19;;;;;;;24.58;11.52;;;;;;;18.73;100.00;93040.59;5079737;28;20490;-76
2023/07/05 04:44:46;;;;;;;28.77;11.43;;;;;;;18.87;100.00;93053.84;5081184;28;20047;-76
2023/07/05 04:47:12;;;;;;;29.50;11.88;;;;;;;18.99;100.00;93054.34;5078897;28;20048;-76
2023/07/05 04:49:39;;;;;;;23.50;10.85;;;;;;;19.15;100.00;93056.91;5080317;28;20109;-76
2023/07/05 04:52:08;;;;;;;23.08;11.25;;;;;;;19.25;100.00;93056.09;5079167;28;20051;-76
2023/07/05 04:54:35;;;;;;;23.30;11.48;;;;;;;19.40;100.00;93053.44;5079873;28;20133;-76
2023/07/05 04:57:02;;;;;;;25.85;10.55;;;;;;;19.49;100.00;93049.19;5081145;28;20040;-76
2023/07/05 04:59:29;;;;;;;19.27;9.88;;;;;;;19.48;100.00;93044.25;5079871;28;20109;-76
2023/07/05 05:01:56;;;;;;;23.90;10.40;;;;;;;19.59;100.00;93055.41;5078402;28;20042;-76
2023/07/05 05:04:22;;;;;;;25.05;11.45;;;;;;;19.67;100.00;93054.81;5078276;28;20052;-76
2023/07/05 05:06:49;;;;;;;31.17;11.43;;;;;;;19.77;100.00;93048.78;5080825;28;20044;-77
2023/07/05 05:09:17;;;;;;;22.15;11.80;;;;;;;19.85;100.00;93056.00;5080255;28;20571;-77
2023/07/05 05:11:44;;;;;;;22.55;10.45;;;;;;;19.94;100.00;93058.06;5080760;28;20540;-76
2023/07/05 05:14:11;;;;;;;24.98;11.60;;;;;;;20.05;100.00;93059.56;5078082;28;20036;-76
2023/07/05 05:16:38;;;;;;;18.20;10.23;;;;;;;20.08;100.00;93059.00;5083052;28;20490;-76
2023/07/05 05:19:05;;;;;;;25.58;11.90;;;;;;;20.19;100.00;93048.50;5081672;28;20044;-76
2023/07/05 05:21:32;;;;;;;25.85;11.75;;;;;;;20.33;100.00;93059.88;5082363;28;20048;-76
2023/07/05 05:23:58;;;;;;;20.33;11.18;;;;;;;20.49;100.00;93049.28;5078908;28;20583;-76
2023/07/05 05:26:26;;;;;;;21.63;11.10;;;;;;;20.63;100.00;93052.81;5078061;28;20040;-76
2023/07/05 05:28:53;;;;;;;21.38;11.05;;;;;;;20.74;100.00;93048.25;5083253;28;20082;-76
2023/07/05 05:31:20;;;;;;;20.02;10.30;;;;;;;20.98;100.00;93059.78;5076999;28;20581;-77
2023/07/05 05:33:47;;;;;;;21.30;10.80;;;;;;;21.15;100.00;93056.72;5070239;28;20045;-77
2023/07/05 05:36:14;;;;;;;19.15;10.35;;;;;;;21.22;100.00;93041.47;5066806;28;20135;-76
2023/07/05 05:38:41;;;;;;;20.55;9.82;;;;;;;21.47;100.00;93063.09;5067158;28;20539;-76
2023/07/05 05:41:10;;;;;;;21.27;10.38;;;;;;;21.61;100.00;93069.19;5079766;28;20085;-76
2023/07/05 05:43:39;;;;;;;19.23;9.77;;;;;;;21.67;100.00;93062.09;5084621;28;20098;-77
2023/07/05 05:46:07;;;;;;;17.27;9.98;;;;;;;21.72;100.00;93063.88;5070166;28;20049;-76
2023/07/05 05:48:34;;;;;;;17.38;9.52;;;;;;;21.91;100.00;93060.47;5066820;28;20049;-76
2023/07/05 05:51:01;;;;;;;20.30;8.88;;;;;;;22.20;100.00;93062.09;5070344;28;20418;-76
2023/07/05 05:53:28;;;;;;;17.92;8.93;;;;;;;22.49;100.00;93061.13;5072904;28;20040;-76
2023/07/05 05:55:57;;;;;;;16.90;8.88;;;;;;;22.82;100.00;93061.88;5073652;28;20055;-76
2023/07/05 05:58:24;;;;;;;19.70;9.23;;;;;;;23.11;100.00;93062.66;5071118;28;20044;-77
2023/07/05 06:00:52;;;;;;;20.45;9.90;;;;;;;23.37;100.00;93051.69;5073525;28;20110;-76
2023/07/05 06:03:19;;;;;;;14.50;8.65;;;;;;;23.62;100.00;93066.09;5073845;28;20055;-76
2023/07/05 06:05:46;;;;;;;20.77;9.07;;;;;;;23.87;100.00;93065.84;5072068;28;20675;-77
2023/07/05 06:08:12;;;;;;;14.40;8.32;;;;;;;24.14;100.00;93064.22;5076620;28;20113;-76
2023/07/05 06:10:39;;;;;;;13.35;8.10;;;;;;;24.13;100.00;93041.69;5078058;28;20048;-77
2023/07/05 06:13:06;;;;;;;17.70;9.55;;;;;;;23.86;100.00;93051.97;5074079;28;20612;-76
2023/07/05 06:15:34;;;;;;;16.55;8.13;;;;;;;24.18;100.00;93057.31;5079041;28;20052;-76
2023/07/05 06:18:02;;;;;;;18.90;9.68;;;;;;;24.45;100.00;93074.00;5077068;28;20051;-76
2023/07/05 06:20:33;;;;;;;14.43;8.93;;;;;;;24.82;100.00;93068.66;5076798;28;20108;-76
2023/07/05 06:23:00;;;;;;;14.57;8.57;;;;;;;25.01;100.00;93063.16;5075684;28;20052;-76
2023/07/05 06:25:27;;;;;;;13.55;8.93;;;;;;;24.15;100.00;93069.19;5075840;28;20122;-76
2023/07/05 06:27:53;;;;;;;15.85;8.70;;;;;;;24.59;100.00;93071.31;5077050;28;20177;-77
2023/07/05 06:30:21;;;;;;;14.88;7.93;;;;;;;24.47;100.00;93068.44;5075414;28;20044;-76
2023/07/05 06:32:47;;;;;;;16.85;9.18;;;;;;;24.28;100.00;93061.53;5075140;28;20044;-77
2023/07/05 06:35:16;;;;;;;16.00;8.38;;;;;;;24.62;100.00;93056.78;5073506;28;20509;-76
2023/07/05 06:37:42;;;;;;;17.27;8.35;;;;;;;25.06;100.00;93063.03;5071473;28;20554;-76
2023/07/05 06:40:10;;;;;;;13.38;8.70;;;;;;;25.42;95.38;93060.47;5071151;28;20150;-77
2023/07/05 06:42:37;;;;;;;12.02;7.53;;;;;;;25.80;94.12;93054.66;5071581;28;20084;-77
2023/07/05 06:45:04;;;;;;;17.42;8.25;;;;;;;26.28;94.64;93052.16;5071639;28;20206;-77
2023/07/05 06:47:31;;;;;;;12.95;8.30;;;;;;;26.71;90.53;93053.19;5070300;28;20048;-77
2023/07/05 06:49:58;;;;;;;12.05;7.55;;;;;;;26.70;85.95;93054.25;5072074;28;20045;-78
2023/07/05 06:52:26;;;;;;;13.27;7.72;;;;;;;27.10;87.85;93055.03;5070266;28;20055;-79
2023/07/05 06:54:53;;;;;;;14.68;7.55;;;;;;;27.53;85.46;93050.63;5073202;28;20040;-80
2023/07/05 06:57:20;;;;;;;12.15;7.93;;;;;;;27.91;83.65;93049.75;5072409;28;20044;-78
2023/07/05 06:59:47;;;;;;;14.88;8.35;;;;;;;28.29;79.37;93050.69;5075549;28;20041;-78
2023/07/05 07:02:13;;;;;;;13.18;7.82;;;;;;;27.53;81.34;93045.34;5072561;28;20077;-78
2023/07/05 07:04:40;;;;;;;10.73;7.15;;;;;;;27.78;81.55;93050.78;5079834;28;20048;-78
2023/07/05 07:07:07;;;;;;;16.88;7.43;;;;;;;27.88;80.38;93037.97;5076988;28;20063;-78
2023/07/05 07:09:37;;;;;;;12.55;7.78;;;;;;;28.13;80.26;93048.63;5072778;28;20497;-78
2023/07/05 07:12:06;;;;;;;10.60;6.85;;;;;;;28.27;80.13;93051.00;5076132;28;20059;-78
2023/07/05 07:14:33;;;;;;;11.77;6.93;;;;;;;28.17;77.89;93054.03;5078456;28;20494;-78
2023/07/05 07:17:00;;;;;;;11.73;7.70;;;;;;;28.18;78.73;93050.28;5077728;28;20046;-77
2023/07/05 07:19:27;;;;;;;13.93;7.88;;;;;;;28.13;78.43;93053.13;5073984;28;20098;-77
2023/07/05 07:21:54;;;;;;;11.40;7.15;;;;;;;28.59;81.02;93045.25;5078222;28;20040;-77
2023/07/05 07:24:20;;;;;;;10.48;7.28;;;;;;;29.02;80.16;93053.81;5077137;28;20453;-76
2023/07/05 07:26:48;;;;;;;12.32;7.43;;;;;;;28.61;78.82;93044.94;5078041;28;20079;-77
2023/07/05 07:29:15;;;;;;;16.05;8.02;;;;;;;28.72;78.78;93050.56;5072662;28;20044;-76
2023/07/05 07:31:42;;;;;;;11.52;7.28;;;;;;;28.99;78.96;93046.53;5068778;28;20114;-77
2023/07/05 07:34:09;;;;;;;11.57;7.18;;;;;;;29.28;76.19;93049.28;5068860;28;20425;-77
2023/07/05 07:36:36;;;;;;;11.35;7.78;;;;;;;28.64;80.12;93050.31;5070303;28;20072;-77
2023/07/05 07:39:04;;;;;;;14.27;7.30;;;;;;;28.44;78.70;93019.47;5068732;28;20403;-77
2023/07/05 07:41:33;;;;;;;9.82;7.18;;;;;;;28.95;77.91;93040.38;5068304;28;20499;-77
2023/07/05 07:44:03;;;;;;;9.60;6.75;;;;;;;28.76;78.85;93036.38;5068489;28;20082;-77
2023/07/05 07:46:31;;;;;;;12.23;7.70;;;;;;;29.32;79.12;93036.94;5069990;28;20056;-77
2023/07/05 07:49:00;;;;;;;11.75;8.10;;;;;;;29.76;78.55;93038.22;5076416;28;20048;-77
2023/07/05 07:51:29;;;;;;;12.90;8.38;;;;;;;29.78;76.64;93043.91;5070356;28;20049;-77
2023/07/05 07:53:56;;;;;;;10.25;7.25;;;;;;;30.07;76.52;93034.09;5073889;28;20051;-76
2023/07/05 07:56:25;;;;;;;14.02;8.07;;;;;;;30.54;74.51;93048.59;5068395;28;20110;-77
2023/07/05 07:58:53;;;;;;;11.05;7.22;;;;;;;30.47;71.14;93025.34;5072959;28;20044;-77
2023/07/05 08:01:24;;;;;;;10.43;7.15;;;;;;;29.35;74.32;93041.56;5067702;28;20049;-76
2023/07/05 08:03:51;;;;;;;10.88;7.75;;;;;;;29.69;74.07;93028.19;5068207;28;20098;-77
2023/07/05 08:06:19;;;;;;;12.55;7.45;;;;;;;28.69;75.63;93044.06;5067585;28;20090;-76
2023/07/05 08:08:46;;;;;;;11.45;6.97;;;;;;;28.48;77.29;93039.63;5068045;28;20052;-77
2023/07/05 08:11:13;;;;;;;14.85;7.35;;;;;;;28.59;77.61;93045.25;5068958;28;20056;-76
2023/07/05 08:13:40;;;;;;;10.57;7.30;;;;;;;28.57;78.61;93046.69;5073670;28;20048;-77
2023/07/05 08:16:08;;;;;;;10.27;7.47;;;;;;;27.85;80.69;93043.13;5071974;28;20075;-77
2023/07/05 08:18:36;;;;;;;12.20;7.38;;;;;;;28.57;80.52;93039.53;5067458;28;20052;-76
2023/07/05 08:21:03;;;;;;;11.45;7.43;;;;;;;29.06;75.69;93041.47;5067961;28;20494;-76
2023/07/05 08:23:30;;;;;;;11.43;7.82;;;;;;;29.53;75.79;93034.16;5084474;28;20058;-76
2023/07/05 08:25:57;;;;;;;11.82;6.95;;;;;;;29.53;74.02;93026.22;5067939;28;20052;-77
2023/07/05 08:28:24;;;;;;;10.10;7.25;;;;;;;29.50;73.87;93016.31;5070608;28;20044;-77
2023/07/05 08:30:55;;;;;;;10.38;7.57;;;;;;;29.76;73.27;93035.56;5071487;28;20098;-77
2023/07/05 08:33:23;;;;;;;10.55;7.28;;;;;;;30.12;73.04;93036.53;5074379;28;20052;-77
2023/07/05 08:35:55;;;;;;;8.93;6.07;;;;;;;30.40;73.66;93036.53;5069197;28;20531;-78
2023/07/05 08:38:22;;;;;;;10.25;6.57;;;;;;;30.24;72.00;93041.03;5084203;28;20051;-77
2023/07/05 08:40:54;;;;;;;9.13;6.65;;;;;;;30.58;71.09;93038.84;5069968;28;20508;-77
2023/07/05 08:43:32;;;;;;;10.15;7.57;;;;;;;30.53;72.50;93023.19;5067566;28;20044;-77
2023/07/05 08:46:04;;;;;;;9.77;6.38;;;;;;;29.85;69.91;93028.25;5075961;28;20118;-77
2023/07/05 08:48:32;;;;;;;8.77;6.10;;;;;;;30.06;70.67;93027.28;5074121;28;20444;-77
2023/07/05 08:51:02;;;;;;;7.97;5.75;;;;;;;30.65;70.16;93027.66;5071063;28;20048;-77
2023/07/05 08:53:29;;;;;;;8.52;5.63;;;;;;;30.84;66.40;93024.38;5068309;28;20098;-77
2023/07/05 08:56:01;;;;;;;7.28;6.03;;;;;;;29.69;68.71;93022.88;5068022;28;20060;-77
2023/07/05 08:58:39;;;;;;;8.27;5.60;;;;;;;29.46;70.62;93018.84;5068687;28;20570;-77
2023/07/05 09:01:11;;;;;;;12.02;6.15;;;;;;;29.03;69.66;93021.00;5067356;28;20052;-77
2023/07/05 09:03:38;;;;;;;7.75;5.78;;;;;;;29.13;72.20;93021.63;5074550;28;20444;-76
2023/07/05 09:06:16;;;;;;;8.63;6.45;;;;;;;29.57;70.52;93003.28;5084289;28;20047;-77
2023/07/05 09:09:06;;;;;;;9.48;6.32;;;;;;;30.07;70.18;93007.63;5071247;28;21227;-77
2023/07/05 09:11:48;;;;;;;7.60;5.35;;;;;;;28.62;68.79;93012.91;5071041;28;20048;-78
2023/07/05 09:14:26;;;;;;;9.85;5.40;;;;;;;28.48;70.29;92980.72;5071557;28;20052;-78
2023/07/05 09:17:00;;;;;;;8.68;5.32;;;;;;;28.10;71.77;92993.81;5067446;28;20449;-78
2023/07/05 09:19:42;;;;;;;7.55;5.53;;;;;;;28.06;74.12;92997.44;5070752;28;20049;-78
2023/07/05 09:22:15;;;;;;;5.78;4.63;;;;;;;28.20;71.53;92997.94;5067163;28;20052;-78
2023/07/05 09:24:42;;;;;;;7.00;4.85;;;;;;;28.46;71.63;92996.91;5071381;28;20098;-77
2023/07/05 09:27:15;;;;;;;7.13;5.22;;;;;;;28.27;70.30;92995.56;5066886;28;20044;-78
2023/07/05 09:29:47;;;;;;;7.93;5.07;;;;;;;28.47;70.24;92992.41;5067154;28;20501;-77
2023/07/05 09:32:18;;;;;;;9.68;4.60;;;;;;;28.35;70.21;93001.06;5067236;28;20053;-77
2023/07/05 09:34:50;;;;;;;9.13;4.75;;;;;;;28.30;70.02;92993.34;5071162;28;20102;-77
2023/07/05 09:37:20;;;;;;;8.55;5.20;;;;;;;28.82;72.74;92986.69;5071314;28;20048;-77
2023/07/05 09:39:59;;;;;;;10.15;4.90;;;;;;;29.11;70.29;92977.00;5071639;28;20091;-77
2023/07/05 09:42:30;;;;;;;5.70;4.68;;;;;;;29.59;70.50;92976.50;5074341;28;20063;-78
2023/07/05 09:44:56;;;;;;;6.30;4.47;;;;;;;30.00;70.42;92982.50;5070933;28;20052;-77
2023/07/05 09:47:23;;;;;;;9.00;4.90;;;;;;;30.23;67.74;92984.63;5073430;28;20048;-77
2023/07/05 09:49:50;;;;;;;6.18;4.40;;;;;;;30.34;65.44;92976.16;5075269;28;20126;-77
2023/07/05 09:52:23;;;;;;;5.50;3.88;;;;;;;29.83;66.02;92985.44;5089526;28;20048;-77
2023/07/05 09:54:54;;;;;;;7.07;4.38;;;;;;;29.86;65.51;92976.84;5074692;28;20048;-77
2023/07/05 09:57:24;;;;;;;5.97;4.57;;;;;;;30.40;66.33;92983.53;5070603;28;20052;-77
2023/07/05 09:59:52;;;;;;;7.53;4.72;;;;;;;29.94;64.38;92991.03;5080113;28;20118;-77
2023/07/05 10:02:22;;;;;;;10.85;5.72;;;;;;;30.33;63.47;92986.03;5070954;28;20098;-78
2023/07/05 10:04:52;;;;;;;5.82;4.70;;;;;;;30.30;64.69;92991.97;5070577;28;20052;-78
2023/07/05 10:07:24;;;;;;;6.90;4.57;;;;;;;29.15;67.32;92953.31;5071754;28;20127;-77
2023/07/05 10:09:57;;;;;;;12.98;7.57;;;;;;;29.28;68.21;92981.28;5071191;28;20094;-77
2023/07/05 10:12:27;;;;;;;7.50;5.20;;;;;;;28.58;71.08;92979.53;5079597;28;20048;-77
2023/07/05 10:14:55;;;;;;;7.68;5.05;;;;;;;28.57;71.85;92980.63;5071193;28;20086;-78
2023/07/05 10:17:22;;;;;;;8.70;5.80;;;;;;;28.87;69.61;92980.47;5077594;28;20508;-77
2023/07/05 10:19:50;;;;;;;8.55;5.60;;;;;;;28.54;72.41;92988.13;5069598;28;20080;-77
2023/07/05 10:22:26;;;;;;;14.13;6.18;;;;;;;28.47;72.12;92984.47;5076578;28;20048;-76
2023/07/05 10:24:58;;;;;;;7.18;5.88;;;;;;;29.01;71.50;92986.16;5081983;28;20052;-77
2023/07/05 10:27:28;;;;;;;8.27;5.65;;;;;;;28.32;72.19;92984.00;5072939;28;20048;-77
2023/07/05 10:30:00;;;;;;;9.23;6.50;;;;;;;28.47;69.25;92979.94;5071080;28;20045;-77
2023/07/05 10:32:28;;;;;;;11.50;6.88;;;;;;;28.72;69.59;92987.91;5070722;28;20142;-76
2023/07/05 10:34:56;;;;;;;6.55;4.68;;;;;;;28.82;69.53;92989.34;5070648;28;20048;-76
2023/07/05 10:37:31;;;;;;;8.93;5.07;;;;;;;29.54;70.07;92985.44;5080448;28;20054;-77
2023/07/05 10:40:00;;;;;;;13.85;7.00;;;;;;;30.02;68.92;92979.53;5084131;28;20040;-77
2023/07/05 10:42:27;;;;;;;7.45;5.05;;;;;;;30.14;65.50;92978.72;5084409;28;20043;-77
2023/07/05 10:44:55;;;;;;;10.55;6.40;;;;;;;30.10;63.89;92970.69;5075010;28;20060;-77
2023/07/05 10:47:22;;;;;;;7.45;5.15;;;;;;;30.04;66.15;92966.72;5076255;28;20071;-77
2023/07/05 10:49:52;;;;;;;6.43;4.80;;;;;;;30.88;65.41;92974.06;5071474;28;20048;-77
2023/07/05 10:52:21;;;;;;;7.07;5.32;;;;;;;30.62;61.85;92975.31;5069828;28;20121;-77
2023/07/05 10:55:00;;;;;;;6.72;4.97;;;;;;;30.09;61.86;92976.28;5073926;28;20091;-78
2023/07/05 10:57:30;;;;;;;7.30;5.18;;;;;;;30.31;61.86;92974.97;5070245;28;20121;-77
2023/07/05 11:00:02;;;;;;;7.47;4.72;;;;;;;30.80;61.41;92979.22;5075831;28;20075;-77
2023/07/05 11:02:38;;;;;;;6.55;4.88;;;;;;;31.19;61.18;92986.50;5070470;28;20114;-77
2023/07/05 11:05:18;;;;;;;7.10;5.35;;;;;;;31.41;61.16;92991.50;5070088;28;20102;-77
2023/07/05 11:07:46;;;;;;;10.98;6.05;;;;;;;31.41;59.43;92989.63;5070536;28;20109;-77
2023/07/05 11:10:16;;;;;;;7.68;5.47;;;;;;;30.82;60.75;92984.16;5073103;28;20044;-77
2023/07/05 11:12:43;;;;;;;8.00;5.40;;;;;;;31.06;59.22;92971.81;5070021;28;20041;-77
2023/07/05 11:15:14;;;;;;;7.38;5.45;;;;;;;30.32;61.63;92984.47;5078132;28;20094;-77
2023/07/05 11:17:43;;;;;;;8.70;5.57;;;;;;;30.93;59.84;92987.06;5080168;28;20048;-77
2023/07/05 11:20:43;;;;;;;8.38;5.38;;;;;;;31.15;60.00;92990.19;5074372;28;20114;-77
2023/07/05 11:23:11;;;;;;;7.07;5.15;;;;;;;30.84;58.21;92986.47;5078091;28;20044;-77
2023/07/05 11:28:37;;;;;;;9.57;4.77;;;;;;;29.81;62.91;92935.47;5061261;27;1755608;-76
2023/07/05 11:31:04;;;;;;;7.05;4.78;;;;;;;28.87;64.82;92927.59;5106545;28;20536;-76
2023/07/05 11:33:31;;;;;;;6.13;4.40;;;;;;;28.40;67.11;92924.25;5107326;28;20500;-77